Harmony, MN (55939)

6:12 AM CST on February 09, 2016 (GMT -0600)
Preston | | Change Station
CLOSE
Current Station
Personal Weather Station
Location: Preston, MN
Elevation: 990 ft
Nearby Weather Stations

Elev 990 ft 43.68 °N, 92.08 °W | Updated 46 seconds ago

Mostly Cloudy
Mostly Cloudy
7.1 °F
Feels Like -4 °F
N
6.1
Wind Variable Wind from WNW
Gusts 16.0 mph

Today
High -- | Low -- °F
--% Chance of Precip.
Yesterday
High -- | Low -- °F
Precip. -- in
Pressure 29.95 in
Visibility 10.0 miles
Clouds Scattered Clouds 2100 ft
Mostly Cloudy 10000 ft
Windchill -4 °F
Dew Point 4 °F
Humidity 81%
Rainfall 0.00 in
Snow Depth Not available.
7:15 AM 5:29 PM
New Moon, 1% visible
METAR KFKA 091155Z AUTO 34010KT 10SM SCT021 BKN100 M14/M18 A2995 RMK AO2 T11451180 11120 21146
Pressure 29.95 in
Visibility 10.0 miles
Clouds Scattered Clouds 2100 ft
Mostly Cloudy 10000 ft
Windchill -4 °F
Dew Point 4 °F
Humidity 81%
Rainfall 0.00 in
Snow Depth Not available.
7:15 AM 5:29 PM
New Moon, 1% visible
METAR KFKA 091155Z AUTO 34010KT 10SM SCT021 BKN100 M14/M18 A2995 RMK AO2 T11451180 11120 21146

10-Day Weather Forecast

Almanac

Astronomy

Feb. 09, 2016 Rise Set
Actual Time
Civil Twilight
Nautical Twilight
Astronomical Twilight
Moon
Length of Visible Light
Length of Day
Tomorrow will be .
, % of the Moon is Illuminated

Today's Extremes

State Highs State Lows

Community

WunderPhotos

Upload Photos

1,891,588 photos uploaded!

WunderBlog® & News

Nearby

Air Quality

  Air Quality AQ Index Pollutant
Not available.

Snow Depth

Station Depth Elevation

Earthquake Activity

City Distance Mag. Time & Date
Minimum magnitude displayed is 2.5.

Coastal Water Temperatures

Place Temperature

Stations

Nearby Weather Stations

Station Location Temp. Windchill Dew Point Humidity Wind Precip. Elev Updated Type
                   

Watches & Warnings

There are currently no watches in effect.